createdAt,value
2023-05-21T00:00:28.437Z,100
2023-05-21T00:02:42.652Z,100
2023-05-21T00:04:58.213Z,100
2023-05-21T00:07:09.376Z,100
2023-05-21T00:09:25.299Z,100
2023-05-21T00:11:39.795Z,100
2023-05-21T00:13:49.662Z,100
2023-05-21T00:16:04.953Z,100
2023-05-21T00:18:15.574Z,100
2023-05-21T00:20:28.315Z,100
2023-05-21T00:22:46.797Z,100
2023-05-21T00:24:59.854Z,100
2023-05-21T00:27:09.947Z,100
2023-05-21T00:29:20.831Z,100
2023-05-21T00:31:30.995Z,100
2023-05-21T00:33:39.180Z,100
2023-05-21T00:35:55.033Z,100
2023-05-21T00:38:11.913Z,100
2023-05-21T00:40:20.303Z,100
2023-05-21T00:42:30.848Z,100
2023-05-21T00:44:46.311Z,100
2023-05-21T00:47:02.218Z,100
2023-05-21T00:49:19.781Z,100
2023-05-21T00:51:34.547Z,100
2023-05-21T00:53:42.058Z,100
2023-05-21T00:55:49.902Z,100
2023-05-21T00:57:57.773Z,100
2023-05-21T01:00:11.552Z,100
2023-05-21T01:02:23.789Z,100
2023-05-21T01:04:32.892Z,100
2023-05-21T01:06:43.555Z,100
2023-05-21T01:08:54.985Z,100
2023-05-21T01:11:07.898Z,100
2023-05-21T01:13:17.356Z,100
2023-05-21T01:15:24.746Z,100
2023-05-21T01:17:38.074Z,100
2023-05-21T01:19:49.323Z,100
2023-05-21T01:21:56.949Z,100
2023-05-21T01:24:11.913Z,100
2023-05-21T01:26:19.412Z,100
2023-05-21T01:28:33.490Z,100
2023-05-21T01:30:49.425Z,100
2023-05-21T01:32:58.171Z,100
2023-05-21T01:35:06.949Z,100
2023-05-21T01:37:14.180Z,100
2023-05-21T01:39:25.112Z,100
2023-05-21T01:41:42.338Z,100
2023-05-21T01:43:53.588Z,100
2023-05-21T01:46:12.138Z,100
2023-05-21T01:48:28.662Z,100
2023-05-21T01:50:42.576Z,100
2023-05-21T01:52:57.214Z,100
2023-05-21T01:55:16.885Z,100
2023-05-21T01:57:24.934Z,100
2023-05-21T01:59:35.621Z,100
2023-05-21T02:01:53.543Z,100
2023-05-21T02:04:13.004Z,100
2023-05-21T02:06:51.857Z,100
2023-05-21T02:09:28.720Z,100
2023-05-21T02:11:46.497Z,100
2023-05-21T02:14:00.720Z,100
2023-05-21T02:19:01.789Z,100
2023-05-21T02:21:38.651Z,100
2023-05-21T02:26:29.830Z,100
2023-05-21T02:28:45.108Z,100
2023-05-21T02:31:06.641Z,100
2023-05-21T02:33:29.517Z,100
2023-05-21T02:35:57.339Z,100
2023-05-21T02:38:32.401Z,100
2023-05-21T02:40:54.892Z,100
2023-05-21T02:43:06.648Z,100
2023-05-21T02:45:48.258Z,100
2023-05-21T02:48:09.967Z,100
2023-05-21T02:50:32.149Z,100
2023-05-21T03:07:25.047Z,100
2023-05-21T03:33:49.067Z,100
2023-05-21T03:36:16.507Z,100
2023-05-21T03:39:02.077Z,100
2023-05-21T03:44:08.357Z,100
2023-05-21T03:46:32.499Z,100
2023-05-21T03:48:49.791Z,100
2023-05-21T03:51:10.348Z,100
2023-05-21T03:53:32.965Z,100
2023-05-21T03:55:46.357Z,100
2023-05-21T03:58:24.409Z,100
2023-05-21T04:00:59.443Z,100
2023-05-21T04:03:20.118Z,100
2023-05-21T04:05:31.439Z,100
2023-05-21T04:07:55.553Z,100
2023-05-21T04:10:16.029Z,100
2023-05-21T04:12:33.906Z,100
2023-05-21T04:14:57.553Z,100
2023-05-21T04:17:11.709Z,100
2023-05-21T04:19:34.329Z,100
2023-05-21T04:21:49.958Z,100
2023-05-21T04:24:09.193Z,100
2023-05-21T04:26:42.497Z,100
2023-05-21T04:28:54.111Z,100
2023-05-21T04:31:18.264Z,100
2023-05-21T04:33:39.109Z,100
2023-05-21T04:35:53.485Z,100
2023-05-21T04:38:14.197Z,100
2023-05-21T04:40:25.577Z,100
2023-05-21T04:42:41.619Z,100
2023-05-21T04:44:49.835Z,100
2023-05-21T04:47:00.405Z,100
2023-05-21T04:49:21.513Z,100
2023-05-21T04:51:42.673Z,100
2023-05-21T04:54:03.144Z,100
2023-05-21T04:56:14.981Z,100
2023-05-21T04:58:52.977Z,100
2023-05-21T05:01:09.260Z,100
2023-05-21T05:03:32.306Z,100
2023-05-21T05:05:49.132Z,100
2023-05-21T05:08:04.607Z,100
2023-05-21T05:10:33.872Z,100
2023-05-21T05:12:56.571Z,100
2023-05-21T05:15:12.376Z,100
2023-05-21T05:17:26.538Z,100
2023-05-21T05:19:58.083Z,100
2023-05-21T05:22:39.229Z,100
2023-05-21T06:49:29.931Z,100
2023-05-21T07:31:57.332Z,100
2023-05-21T07:37:28.816Z,100
2023-05-21T07:42:03.204Z,100
2023-05-21T07:46:33.737Z,100
2023-05-21T07:49:03.519Z,100
2023-05-21T07:51:15.143Z,100
2023-05-21T07:53:21.717Z,100
2023-05-21T07:55:28.485Z,100
2023-05-21T07:57:39.498Z,100
2023-05-21T07:59:49.610Z,100
2023-05-21T08:01:58.085Z,100
2023-05-21T08:04:07.594Z,100
2023-05-21T08:08:52.009Z,100
2023-05-21T08:10:59.955Z,100
2023-05-21T08:13:07.759Z,100
2023-05-21T08:15:19.891Z,100
2023-05-21T08:17:28.466Z,100
2023-05-21T08:19:40.965Z,100
2023-05-21T08:21:54.693Z,100
2023-05-21T08:24:07.948Z,100
2023-05-21T08:26:16.637Z,100
2023-05-21T08:28:23.404Z,100
2023-05-21T08:30:52.281Z,100
2023-05-21T08:33:02.311Z,100
2023-05-21T08:35:13.007Z,100
2023-05-21T08:37:21.973Z,99.92
2023-05-21T08:39:28.606Z,100
2023-05-21T08:41:53.136Z,100
2023-05-21T08:44:01.264Z,100
2023-05-21T08:46:13.555Z,100
2023-05-21T08:48:22.906Z,98.89
2023-05-21T08:50:32.030Z,100
2023-05-21T08:52:48.507Z,99.77
2023-05-21T08:54:56.891Z,100
2023-05-21T08:57:05.539Z,100
2023-05-21T08:59:27.741Z,96.76
2023-05-21T09:01:36.556Z,93.09
2023-05-21T09:03:47.411Z,97.72
2023-05-21T09:06:09.608Z,95.97
2023-05-21T09:08:18.728Z,94.94
2023-05-21T09:10:26.572Z,89.17
2023-05-21T09:12:33.201Z,96.8
2023-05-21T09:14:41.556Z,89.86
2023-05-21T09:16:50.321Z,91.82
2023-05-21T09:19:02.309Z,88
2023-05-21T09:21:12.837Z,85.55
2023-05-21T09:23:20.976Z,88.5
2023-05-21T09:25:29.548Z,83.44
2023-05-21T09:27:37.897Z,88.53
2023-05-21T09:29:45.991Z,86.1
2023-05-21T09:31:57.397Z,85
2023-05-21T09:34:05.504Z,85.86
2023-05-21T09:36:14.604Z,80.17
2023-05-21T09:38:23.043Z,88.26
2023-05-21T09:40:31.300Z,83.69
2023-05-21T09:42:43.642Z,81
2023-05-21T09:44:55.341Z,82.13
2023-05-21T09:47:27.931Z,81.37
2023-05-21T09:49:34.607Z,79.8
2023-05-21T09:51:42.878Z,77.46
2023-05-21T09:53:50.952Z,76.13
2023-05-21T09:55:59.150Z,74.83
2023-05-21T09:58:09.667Z,73.56
2023-05-21T10:00:18.436Z,74.55
2023-05-21T10:02:27.030Z,74.83
2023-05-21T10:04:35.887Z,79.21
2023-05-21T10:06:44.539Z,72.25
2023-05-21T10:08:53.124Z,78.5
2023-05-21T10:11:00.883Z,74.71
2023-05-21T10:13:19.360Z,70.78
2023-05-21T10:15:28.689Z,67.74
2023-05-21T10:17:37.011Z,69.09
2023-05-21T10:19:46.452Z,67.79
2023-05-21T10:21:57.687Z,66.72
2023-05-21T10:24:07.726Z,67.55
2023-05-21T10:26:15.639Z,70.54
2023-05-21T10:28:26.015Z,65.97
2023-05-21T10:30:34.530Z,66.42
2023-05-21T10:32:43.661Z,67.19
2023-05-21T10:34:51.911Z,66.15
2023-05-21T10:36:59.677Z,63.4
2023-05-21T10:39:10.919Z,67.47
2023-05-21T10:41:27.173Z,69.07
2023-05-21T10:43:35.581Z,65.05
2023-05-21T10:45:45.020Z,67.36
2023-05-21T10:47:56.415Z,68.5
2023-05-21T10:50:04.155Z,64.35
2023-05-21T10:52:12.467Z,65.75
2023-05-21T10:54:20.557Z,62.52
2023-05-21T10:56:28.512Z,66.68
2023-05-21T10:58:36.542Z,67.36
2023-05-21T11:00:45.286Z,67.81
2023-05-21T11:02:53.973Z,62.16
2023-05-21T11:05:01.656Z,63.23
2023-05-21T11:07:08.752Z,59.6
2023-05-21T11:09:16.191Z,63.42
2023-05-21T11:11:24.701Z,61.19
2023-05-21T11:13:36.617Z,62.69
2023-05-21T11:15:45.960Z,62.32
2023-05-21T11:17:54.640Z,64.76
2023-05-21T11:20:06.349Z,62.9
2023-05-21T11:22:14.648Z,61.64
2023-05-21T11:24:26.173Z,59.76
2023-05-21T11:26:37.336Z,63.33
2023-05-21T11:28:45.450Z,60.35
2023-05-21T11:30:54.298Z,56.12
2023-05-21T11:33:05.083Z,60.54
2023-05-21T11:35:13.106Z,62.35
2023-05-21T11:37:23.103Z,63.05
2023-05-21T11:39:31.434Z,60.02
2023-05-21T11:41:38.608Z,59.11
2023-05-21T11:43:46.563Z,59.06
2023-05-21T11:45:55.659Z,61.48
2023-05-21T11:48:04.160Z,61.95
2023-05-21T11:50:12.538Z,57.01
2023-05-21T11:52:21.877Z,59
2023-05-21T11:54:30.466Z,61.45
2023-05-21T11:56:38.739Z,59.23
2023-05-21T11:58:46.968Z,60.29
2023-05-21T12:00:55.230Z,57.75
2023-05-21T12:03:03.989Z,57.61
2023-05-21T12:05:14.962Z,56.96
2023-05-21T12:07:22.672Z,60.44
2023-05-21T12:09:31.386Z,58.43
2023-05-21T12:11:39.058Z,59.98
2023-05-21T12:13:48.014Z,59.45
2023-05-21T12:15:56.181Z,56.79
2023-05-21T12:18:04.865Z,53.56
2023-05-21T12:20:14.289Z,57.66
2023-05-21T12:22:22.350Z,53.16
2023-05-21T12:24:31.075Z,53.29
2023-05-21T12:26:39.055Z,55.14
2023-05-21T12:28:47.298Z,52.97
2023-05-21T12:30:55.489Z,54.46
2023-05-21T12:33:02.732Z,52.6
2023-05-21T12:35:11.548Z,55.76
2023-05-21T12:37:20.533Z,51.2
2023-05-21T12:39:31.767Z,54.34
2023-05-21T12:41:39.872Z,52.34
2023-05-21T12:43:48.405Z,53.78
2023-05-21T12:45:57.037Z,50.37
2023-05-21T12:48:05.456Z,51.68
2023-05-21T12:50:13.775Z,48.15
2023-05-21T12:52:22.683Z,48.89
2023-05-21T12:54:35.035Z,49.44
2023-05-21T12:56:44.876Z,51.65
2023-05-21T12:58:54.255Z,49.89
2023-05-21T13:01:06.741Z,49.19
2023-05-21T13:03:14.258Z,50.17
2023-05-21T13:05:22.879Z,48.84
2023-05-21T13:07:32.640Z,49.99
2023-05-21T13:09:41.197Z,50.21
2023-05-21T13:11:52.879Z,54.16
2023-05-21T13:14:01.538Z,48.62
2023-05-21T13:16:11.530Z,50.6
2023-05-21T13:18:20.483Z,51.17
2023-05-21T13:20:29.561Z,53.87
2023-05-21T13:22:38.241Z,50.41
2023-05-21T13:24:47.149Z,49.45
2023-05-21T13:26:56.156Z,50.34
2023-05-21T13:29:05.117Z,49.26
2023-05-21T13:31:14.052Z,50.48
2023-05-21T13:33:24.829Z,48.56
2023-05-21T13:35:34.257Z,45.9
2023-05-21T13:37:42.759Z,46.48
2023-05-21T13:39:53.242Z,48.48
2023-05-21T13:42:02.556Z,52.31
2023-05-21T13:44:11.096Z,49.56
2023-05-21T13:46:20.177Z,47.21
2023-05-21T13:48:33.507Z,48.56
2023-05-21T13:50:42.687Z,51.01
2023-05-21T13:52:50.405Z,48.86
2023-05-21T13:54:59.191Z,49.47
2023-05-21T13:57:08.042Z,48.26
2023-05-21T13:59:16.318Z,47.39
2023-05-21T14:01:23.235Z,47.21
2023-05-21T14:03:31.730Z,47.67
2023-05-21T14:05:40.738Z,50.26
2023-05-21T14:07:49.506Z,50.74
2023-05-21T14:10:03.300Z,48.81
2023-05-21T14:12:12.679Z,49.39
2023-05-21T14:14:20.552Z,48.37
2023-05-21T14:16:32.557Z,49.73
2023-05-21T14:18:41.271Z,47.07
2023-05-21T14:20:50.268Z,51
2023-05-21T14:22:58.823Z,50.98
2023-05-21T14:25:08.538Z,50.25
2023-05-21T14:27:21.107Z,47.28
2023-05-21T14:29:29.672Z,52.38
2023-05-21T14:31:39.669Z,51.11
2023-05-21T14:33:47.969Z,48.84
2023-05-21T14:35:57.824Z,53.16
2023-05-21T14:38:06.750Z,50.18
2023-05-21T14:40:16.828Z,49.52
2023-05-21T14:42:25.373Z,52.69
2023-05-21T14:44:34.721Z,50.75
2023-05-21T14:46:43.511Z,53.8
2023-05-21T14:48:51.549Z,55.8
2023-05-21T14:51:07.788Z,53.93
2023-05-21T14:53:16.420Z,54.18
2023-05-21T14:55:24.574Z,56.25
2023-05-21T14:57:36.421Z,57.17
2023-05-21T14:59:45.717Z,57.49
2023-05-21T15:01:57.029Z,58.79
2023-05-21T15:04:06.392Z,58.51
2023-05-21T15:06:19.274Z,58.49
2023-05-21T15:08:30.577Z,59.16
2023-05-21T15:10:38.628Z,58.48
2023-05-21T15:12:51.095Z,59.25
2023-05-21T15:15:01.234Z,59.6
2023-05-21T15:17:11.513Z,60
2023-05-21T15:19:20.068Z,60.74
2023-05-21T15:21:36.176Z,59.99
2023-05-21T15:23:48.215Z,61.11
2023-05-21T15:25:56.623Z,59.32
2023-05-21T15:28:08.940Z,58.47
2023-05-21T15:30:17.728Z,57.66
2023-05-21T15:32:27.873Z,58.71
2023-05-21T15:34:47.859Z,57.27
2023-05-21T15:37:16.779Z,58.28
2023-05-21T15:39:26.179Z,59.3
2023-05-21T15:41:38.165Z,58.19
2023-05-21T15:43:47.308Z,60.9
2023-05-21T15:46:00.532Z,60.7
2023-05-21T15:48:09.691Z,60.44
2023-05-21T15:50:19.883Z,59.46
2023-05-21T15:52:28.098Z,59.39
2023-05-21T15:54:36.881Z,61.19
2023-05-21T15:56:46.417Z,58.24
2023-05-21T15:59:02.463Z,60.36
2023-05-21T16:01:11.142Z,58.97
2023-05-21T16:03:23.022Z,59.16
2023-05-21T16:05:32.522Z,59.27
2023-05-21T16:07:43.155Z,57.84
2023-05-21T16:09:51.714Z,61.16
2023-05-21T16:11:59.863Z,57.13
2023-05-21T16:14:07.846Z,57.54
2023-05-21T16:16:16.026Z,58.13
2023-05-21T16:18:25.490Z,59.5
2023-05-21T16:20:34.130Z,58.04
2023-05-21T16:22:44.136Z,59.24
2023-05-21T16:24:52.262Z,58.27
2023-05-21T16:27:01.433Z,60.21
2023-05-21T16:29:09.538Z,61.7
2023-05-21T16:31:18.505Z,60.65
2023-05-21T16:33:26.801Z,62.32
2023-05-21T16:35:35.214Z,62.1
2023-05-21T16:37:44.521Z,62.52
2023-05-21T16:39:53.608Z,65.7
2023-05-21T16:42:02.358Z,65.16
2023-05-21T16:44:11.217Z,64.13
2023-05-21T16:46:21.257Z,66.82
2023-05-21T16:48:29.073Z,66.5
2023-05-21T16:50:38.145Z,68.1
2023-05-21T16:52:46.949Z,68.19
2023-05-21T16:54:56.346Z,68.69
2023-05-21T16:57:05.458Z,67.99
2023-05-21T16:59:14.051Z,67.53
2023-05-21T17:01:22.820Z,65.71
2023-05-21T17:03:35.108Z,66.91
2023-05-21T17:05:44.079Z,67.41
2023-05-21T17:07:54.598Z,65.28
2023-05-21T17:10:02.815Z,66.22
2023-05-21T17:12:25.229Z,66.12
2023-05-21T17:14:43.282Z,65.36
2023-05-21T17:16:52.157Z,63.98
2023-05-21T17:19:00.028Z,66.01
2023-05-21T17:21:08.248Z,66.79
2023-05-21T17:23:21.152Z,65.01
2023-05-21T17:25:29.597Z,70.71
2023-05-21T17:27:43.084Z,71.5
2023-05-21T17:29:51.191Z,72.14
2023-05-21T17:32:00.978Z,68.71
2023-05-21T17:34:11.098Z,72.29
2023-05-21T17:36:20.031Z,75.99
2023-05-21T17:38:28.248Z,79.7
2023-05-21T17:40:36.269Z,80.58
2023-05-21T17:42:45.857Z,82.96
2023-05-21T17:44:54.416Z,92.63
2023-05-21T17:47:07.324Z,96.7
2023-05-21T17:49:15.785Z,100
2023-05-21T17:51:23.320Z,100
2023-05-21T17:53:32.434Z,100
2023-05-21T17:55:41.269Z,100
2023-05-21T17:57:49.797Z,100
2023-05-21T17:59:58.486Z,100
2023-05-21T18:02:06.324Z,100
2023-05-21T18:04:14.598Z,100
2023-05-21T18:06:22.918Z,100
2023-05-21T18:08:32.577Z,100
2023-05-21T18:10:40.865Z,100
2023-05-21T18:12:50.179Z,100
2023-05-21T18:14:58.067Z,100
2023-05-21T18:17:06.980Z,100
2023-05-21T18:19:19.357Z,100
2023-05-21T18:21:41.231Z,100
2023-05-21T18:23:49.071Z,100
2023-05-21T18:25:58.780Z,100
2023-05-21T18:28:08.271Z,100
2023-05-21T18:30:16.266Z,100
2023-05-21T18:32:25.556Z,100
2023-05-21T18:34:35.460Z,100
2023-05-21T18:36:47.859Z,100
2023-05-21T18:39:11.408Z,100
2023-05-21T18:41:20.402Z,100
2023-05-21T18:43:31.331Z,100
2023-05-21T18:45:41.724Z,100
2023-05-21T18:47:50.927Z,100
2023-05-21T18:49:59.749Z,100
2023-05-21T18:52:08.858Z,100
2023-05-21T18:54:16.757Z,100
2023-05-21T18:56:25.672Z,100
2023-05-21T18:58:34.452Z,100
2023-05-21T19:00:44.625Z,100
2023-05-21T19:02:53.678Z,100
2023-05-21T19:05:01.951Z,100
2023-05-21T19:07:10.454Z,100
2023-05-21T19:09:21.005Z,100
2023-05-21T19:11:31.415Z,100
2023-05-21T19:13:40.186Z,100
2023-05-21T19:15:49.300Z,100
2023-05-21T19:17:58.864Z,100
2023-05-21T19:20:07.434Z,100
2023-05-21T19:22:15.585Z,100
2023-05-21T19:24:24.546Z,100
2023-05-21T19:26:35.452Z,100
2023-05-21T19:28:43.757Z,100
2023-05-21T19:30:54.250Z,100
2023-05-21T19:33:02.292Z,100
2023-05-21T19:35:12.229Z,100
2023-05-21T19:37:20.925Z,100
2023-05-21T19:39:32.964Z,100
2023-05-21T19:41:41.930Z,100
2023-05-21T19:43:51.358Z,100
2023-05-21T19:46:01.182Z,100
2023-05-21T19:48:11.117Z,100
2023-05-21T19:50:20.259Z,100
2023-05-21T19:52:28.285Z,100
2023-05-21T19:54:37.735Z,100
2023-05-21T19:56:45.940Z,100
2023-05-21T19:58:53.482Z,100
2023-05-21T20:01:01.927Z,100
2023-05-21T20:03:11.288Z,100
2023-05-21T20:05:22.541Z,100
2023-05-21T20:07:30.988Z,100
2023-05-21T20:09:38.990Z,100
2023-05-21T20:11:47.308Z,100
2023-05-21T20:13:57.501Z,100
2023-05-21T20:16:05.145Z,100
2023-05-21T20:18:14.047Z,100
2023-05-21T20:20:21.614Z,100
2023-05-21T20:22:30.651Z,100
2023-05-21T20:24:39.326Z,100
2023-05-21T20:26:48.994Z,100
2023-05-21T20:28:57.276Z,100
2023-05-21T20:31:05.442Z,100
2023-05-21T20:33:14.495Z,100
2023-05-21T20:35:25.572Z,100
2023-05-21T20:37:34.183Z,100
2023-05-21T20:39:42.051Z,100
2023-05-21T20:41:51.138Z,100
2023-05-21T20:43:59.671Z,100
2023-05-21T20:46:08.087Z,100
2023-05-21T20:48:17.112Z,100
2023-05-21T20:50:25.540Z,100
2023-05-21T20:52:34.729Z,100
2023-05-21T20:54:42.348Z,100
2023-05-21T20:56:52.987Z,100
2023-05-21T20:59:00.771Z,100
2023-05-21T21:01:09.010Z,100
2023-05-21T21:03:17.301Z,100
2023-05-21T21:05:24.960Z,100
2023-05-21T21:07:33.004Z,100
2023-05-21T21:09:43.192Z,100
2023-05-21T21:11:50.951Z,100
2023-05-21T21:14:00.935Z,100
2023-05-21T21:16:09.944Z,100
2023-05-21T21:18:18.069Z,100
2023-05-21T21:20:29.168Z,100
2023-05-21T21:22:37.248Z,100
2023-05-21T21:24:46.001Z,100
2023-05-21T21:26:58.220Z,100
2023-05-21T21:29:06.253Z,100
2023-05-21T21:31:15.492Z,100
2023-05-21T21:33:26.961Z,100
2023-05-21T21:35:34.861Z,100
2023-05-21T21:37:43.136Z,100
2023-05-21T21:39:51.288Z,100
2023-05-21T21:41:57.934Z,100
2023-05-21T21:44:05.430Z,100
2023-05-21T21:46:15.127Z,100
2023-05-21T21:48:22.931Z,100
2023-05-21T21:50:31.830Z,100
2023-05-21T21:52:39.915Z,100
2023-05-21T21:54:48.459Z,100
2023-05-21T21:56:56.009Z,100
2023-05-21T21:59:04.471Z,100
2023-05-21T22:01:12.712Z,100
2023-05-21T22:03:22.331Z,100
2023-05-21T22:05:29.501Z,100
2023-05-21T22:07:36.754Z,100
2023-05-21T22:09:43.471Z,100
2023-05-21T22:11:50.646Z,100
2023-05-21T22:13:57.734Z,100
2023-05-21T22:16:04.377Z,100
2023-05-21T22:18:12.655Z,100
2023-05-21T22:20:19.175Z,100
2023-05-21T22:22:29.400Z,100
2023-05-21T22:24:38.634Z,100
2023-05-21T22:26:45.718Z,100
2023-05-21T22:28:52.854Z,100
2023-05-21T22:31:00.211Z,100
2023-05-21T22:33:07.168Z,100
2023-05-21T22:35:14.108Z,100
2023-05-21T22:37:22.696Z,100
2023-05-21T22:39:29.455Z,100
2023-05-21T22:41:37.095Z,100
2023-05-21T22:43:44.028Z,100
2023-05-21T22:45:50.967Z,100
2023-05-21T22:47:58.325Z,100
2023-05-21T22:50:06.270Z,100
2023-05-21T22:52:16.334Z,100
2023-05-21T22:54:23.452Z,100
2023-05-21T22:56:30.833Z,100
2023-05-21T22:58:38.521Z,100
2023-05-21T23:00:45.768Z,100
2023-05-21T23:02:59.123Z,100
2023-05-21T23:05:07.198Z,100
2023-05-21T23:07:14.061Z,100
2023-05-21T23:09:22.589Z,100
2023-05-21T23:11:29.592Z,100
2023-05-21T23:13:36.589Z,100
2023-05-21T23:15:44.242Z,100
2023-05-21T23:17:51.115Z,100
2023-05-21T23:19:58.460Z,100
2023-05-21T23:22:05.608Z,100
2023-05-21T23:24:12.675Z,100
2023-05-21T23:26:20.531Z,100
2023-05-21T23:28:27.954Z,100
2023-05-21T23:30:34.833Z,100
2023-05-21T23:32:42.154Z,100
2023-05-21T23:34:50.330Z,100
2023-05-21T23:37:00.256Z,100
2023-05-21T23:39:07.546Z,100
2023-05-21T23:41:15.513Z,100
2023-05-21T23:43:22.844Z,100
2023-05-21T23:45:32.198Z,100
2023-05-21T23:47:39.611Z,100
2023-05-21T23:49:46.615Z,100
2023-05-21T23:51:53.880Z,100
2023-05-21T23:54:00.260Z,100
2023-05-21T23:56:07.386Z,100
2023-05-21T23:58:15.227Z,100
